Pagrindinis puslapis
METAR-TAF:

METAR-TAF

Oro uostai :

Savanaketas, Laosas

platuma: 16-33-24N, ilguma: 104-45-34E, Aukštis: 155 m

Dabartinis oras

Ataskaita buvo paskelbta 45 minutes, ne 08:00 UTC
Vėjas 8 kt iš Šiaurės Rytų
Temperatūra 26°C
Drėgmė 34%
Slėgis 1017 hPa
Matomumas: 7000 m
Išsisklaidę debesys ne aukštis 4000 ft
Su prošvaistėmis ne aukštis 10000 ft

METAR: VLSK 170800Z 04008KT 7000 SCT040 BKN100 26/09 Q1017 NOSIG

Laikas: 15:45 (08:45 UTC)

Prognozė

Ataskaita buvo paskelbta 3 valandos ir 45 minutes, ne 05:00 UTC
Prognozė galioja nuo 17 metu 06 UTC su 18 metu 06 UTC
Vėjas 6 kt iš Rytų/Šiaurės Rytų
Matomumas: 8000 m
Mažai debesys ne aukštis 2000 ft
Išsisklaidę debesys ne aukštis 10000 ft

TAF: VLSK 170500Z 1706/1806 06006KT 8000 FEW020 SCT100

Orai ataskaitas ir orų prognozės (METAR, TAF).

turimą stotys yra geltonos ir raudonos taškus žemėlapyje.

Perkelti pele per norėdami pamatyti stoties vardą.

Tada spustelėkite, norėdami matyti oro stebėjimo ir prognozės.

Norėdami pakeisti žemėlapį: spustelėkite ant žalios mygtukų su juodo kryžiaus žemyn,; žalią mygtuką su brūkšneliu, jei norite nutolinti; arba žalių rodyklių gretimoms žemėlapius.


METAR-TAF: